Nearby METAR Reports

 

EGKB - Biggin Hill, United Kingdom
Distance from station: S 5mi, 8km
Updated: 29/07/2014 19:20
Clear
Clear
 Wind from NW
Wind: NW 2 mph , 4 km/h
Temperature: 24°C
Dew Point: 10°C
Humidity: 41%
Barometer: 1014 hPa
Summary: Clear
Visibility: greater than 7 miles , 10 km
2014/07/29 18:20 EGKB 291820Z 31002KT CAVOK 24/10 Q1014
EGLC - London City Airp, United Kingdom
Distance from station: NNE 8mi, 13km
Updated: 29/07/2014 19:20
Clear
Clear
 Wind from WNW
Wind: WNW 8 mph , 13 km/h
Temperature: 26°C
Dew Point: 10°C
Humidity: 37%
Barometer: 1013 hPa
Summary: Clear
Visibility: greater than 7 miles , 10 km
2014/07/29 18:20 EGLC 291820Z 30007KT CAVOK 26/10 Q1013
 
EGKK - London/Gatwick A, United Kingdom
Distance from station: SSW 19mi, 31km
Updated: 29/07/2014 19:20
Few Clouds
Few Clouds
 Wind from NW
Wind: NW 6 mph , 9 km/h
Temperature: 24°C
Dew Point: 12°C
Humidity: 47%
Barometer: 1014 hPa
Clouds: Few Clouds
Visibility: 6 miles , 10 km
Cloud details: Few Clouds 1463 m
2014/07/29 18:20 EGKK 291820Z 32005KT 9999 FEW048 24/12 Q1014
EGLL - London/Heathrow, United Kingdom
Distance from station: WNW 21mi, 33km
Updated: 29/07/2014 19:20
Clear
Clear
 Wind from NW
Wind: NW 7 mph , 11 km/h
Temperature: 25°C
Dew Point: 10°C
Humidity: 39%
Barometer: 1014 hPa
Summary: Clear
Visibility: greater than 7 miles , 10 km
2014/07/29 18:20 EGLL 291820Z 32006KT 290V010 CAVOK 25/10 Q1014 NOSIG